sensor_id;sensor_type;location;lat;lon;timestamp;pressure;altitude;pressure_sealevel;temperature;humidity
50133;BME280;46340;53.148;8.204;2022-08-18T00:01:16;101095.63;;;17.69;100.00
50133;BME280;46340;53.148;8.204;2022-08-18T00:03:41;101101.66;;;17.75;100.00
50133;BME280;46340;53.148;8.204;2022-08-18T00:06:08;101100.84;;;17.71;100.00
50133;BME280;46340;53.148;8.204;2022-08-18T00:08:33;101100.84;;;17.71;100.00
50133;BME280;46340;53.148;8.204;2022-08-18T00:10:59;101098.41;;;17.69;100.00
50133;BME280;46340;53.148;8.204;2022-08-18T00:13:24;101089.28;;;17.72;100.00
50133;BME280;46340;53.148;8.204;2022-08-18T00:15:50;101088.03;;;17.66;100.00
50133;BME280;46340;53.148;8.204;2022-08-18T00:18:15;101083.66;;;17.65;100.00
50133;BME280;46340;53.148;8.204;2022-08-18T00:20:40;101084.84;;;17.67;100.00
50133;BME280;46340;53.148;8.204;2022-08-18T00:23:06;101081.66;;;17.65;100.00
50133;BME280;46340;53.148;8.204;2022-08-18T00:25:31;101073.28;;;17.69;100.00
50133;BME280;46340;53.148;8.204;2022-08-18T00:27:57;101080.91;;;17.72;100.00
50133;BME280;46340;53.148;8.204;2022-08-18T00:30:22;101074.50;;;17.72;100.00
50133;BME280;46340;53.148;8.204;2022-08-18T00:32:51;101090.09;;;17.76;100.00
50133;BME280;46340;53.148;8.204;2022-08-18T00:35:20;101096.88;;;17.75;100.00
50133;BME280;46340;53.148;8.204;2022-08-18T00:37:51;101096.44;;;17.70;100.00
50133;BME280;46340;53.148;8.204;2022-08-18T00:40:19;101096.88;;;17.75;100.00
50133;BME280;46340;53.148;8.204;2022-08-18T00:42:48;101100.44;;;17.72;100.00
50133;BME280;46340;53.148;8.204;2022-08-18T00:45:18;101098.84;;;17.75;100.00
50133;BME280;46340;53.148;8.204;2022-08-18T00:47:47;101107.25;;;17.78;100.00
50133;BME280;46340;53.148;8.204;2022-08-18T00:50:20;101112.09;;;17.81;100.00
50133;BME280;46340;53.148;8.204;2022-08-18T00:52:55;101106.09;;;17.79;100.00
50133;BME280;46340;53.148;8.204;2022-08-18T00:55:36;101109.75;;;17.87;100.00
50133;BME280;46340;53.148;8.204;2022-08-18T00:58:08;101105.38;;;17.86;100.00
50133;BME280;46340;53.148;8.204;2022-08-18T01:00:39;101103.41;;;17.90;100.00
50133;BME280;46340;53.148;8.204;2022-08-18T01:03:08;101096.94;;;17.82;100.00
50133;BME280;46340;53.148;8.204;2022-08-18T01:05:39;101100.94;;;17.85;100.00
50133;BME280;46340;53.148;8.204;2022-08-18T01:08:10;101102.59;;;17.86;100.00
50133;BME280;46340;53.148;8.204;2022-08-18T01:10:38;101091.75;;;17.81;100.00
50133;BME280;46340;53.148;8.204;2022-08-18T01:13:05;101107.66;;;17.77;100.00
50133;BME280;46340;53.148;8.204;2022-08-18T01:15:30;101100.50;;;17.79;100.00
50133;BME280;46340;53.148;8.204;2022-08-18T01:17:57;101097.28;;;17.77;100.00
50133;BME280;46340;53.148;8.204;2022-08-18T01:20:59;101100.84;;;17.71;100.00
50133;BME280;46340;53.148;8.204;2022-08-18T01:23:51;101101.66;;;17.75;100.00
50133;BME280;46340;53.148;8.204;2022-08-18T01:26:18;101105.28;;;17.75;100.00
50133;BME280;46340;53.148;8.204;2022-08-18T01:28:46;101104.41;;;17.71;100.00
50133;BME280;46340;53.148;8.204;2022-08-18T01:31:27;101097.69;;;17.76;100.00
50133;BME280;46340;53.148;8.204;2022-08-18T01:34:02;101102.94;;;17.84;100.00
50133;BME280;46340;53.148;8.204;2022-08-18T01:36:28;101101.28;;;17.80;100.00
50133;BME280;46340;53.148;8.204;2022-08-18T01:38:54;101099.28;;;17.80;100.00
50133;BME280;46340;53.148;8.204;2022-08-18T01:41:21;101104.47;;;17.78;100.00
50133;BME280;46340;53.148;8.204;2022-08-18T01:43:47;101096.06;;;17.75;100.00
50133;BME280;46340;53.148;8.204;2022-08-18T01:46:16;101104.84;;;17.77;100.00
50133;BME280;46340;53.148;8.204;2022-08-18T01:48:44;101104.50;;;17.82;100.00
50133;BME280;46340;53.148;8.204;2022-08-18T01:51:10;101098.13;;;17.81;100.00
50133;BME280;46340;53.148;8.204;2022-08-18T01:53:37;101096.59;;;17.88;100.00
50133;BME280;46340;53.148;8.204;2022-08-18T01:56:03;101082.19;;;17.85;100.00
50133;BME280;46340;53.148;8.204;2022-08-18T01:58:30;101080.16;;;17.79;100.00
50133;BME280;46340;53.148;8.204;2022-08-18T02:00:56;101081.31;;;17.74;100.00
50133;BME280;46340;53.148;8.204;2022-08-18T02:03:25;101078.16;;;17.79;100.00
50133;BME280;46340;53.148;8.204;2022-08-18T02:05:55;101073.38;;;17.83;100.00
50133;BME280;46340;53.148;8.204;2022-08-18T02:08:25;101068.69;;;17.88;100.00
50133;BME280;46340;53.148;8.204;2022-08-18T02:10:51;101067.81;;;17.83;100.00
50133;BME280;46340;53.148;8.204;2022-08-18T02:13:16;101063.47;;;17.86;100.00
50133;BME280;46340;53.148;8.204;2022-08-18T02:15:42;101055.88;;;17.87;100.00
50133;BME280;46340;53.148;8.204;2022-08-18T02:18:18;101059.03;;;17.85;100.00
50133;BME280;46340;53.148;8.204;2022-08-18T02:20:46;101055.03;;;17.82;100.00
50133;BME280;46340;53.148;8.204;2022-08-18T02:23:11;101053.78;;;17.76;100.00
50133;BME280;46340;53.148;8.204;2022-08-18T02:25:37;101041.81;;;17.72;100.00
50133;BME280;46340;53.148;8.204;2022-08-18T02:28:03;101047.72;;;17.63;100.00
50133;BME280;46340;53.148;8.204;2022-08-18T02:30:29;101044.91;;;17.60;100.00
50133;BME280;46340;53.148;8.204;2022-08-18T02:32:56;101048.44;;;17.53;100.00
50133;BME280;46340;53.148;8.204;2022-08-18T02:35:21;101050.38;;;17.49;100.00
50133;BME280;46340;53.148;8.204;2022-08-18T02:37:47;101049.56;;;17.45;100.00
50133;BME280;46340;53.148;8.204;2022-08-18T02:40:12;101050.72;;;17.40;100.00
50133;BME280;46340;53.148;8.204;2022-08-18T02:42:38;101047.47;;;17.35;100.00
50133;BME280;46340;53.148;8.204;2022-08-18T02:45:04;101041.88;;;17.31;100.00
50133;BME280;46340;53.148;8.204;2022-08-18T02:47:30;101047.03;;;17.29;100.00
50133;BME280;46340;53.148;8.204;2022-08-18T02:49:56;101044.59;;;17.24;100.00
50133;BME280;46340;53.148;8.204;2022-08-18T02:52:21;101042.16;;;17.19;100.00
50133;BME280;46340;53.148;8.204;2022-08-18T02:54:47;101052.09;;;17.16;100.00
50133;BME280;46340;53.148;8.204;2022-08-18T02:57:12;101046.09;;;17.14;100.00
50133;BME280;46340;53.148;8.204;2022-08-18T02:59:38;101050.94;;;17.21;100.00
50133;BME280;46340;53.148;8.204;2022-08-18T03:02:06;101052.56;;;17.22;100.00
50133;BME280;46340;53.148;8.204;2022-08-18T03:04:32;101058.06;;;17.15;100.00
50133;BME280;46340;53.148;8.204;2022-08-18T03:06:59;101063.69;;;17.18;100.00
50133;BME280;46340;53.148;8.204;2022-08-18T03:09:29;101055.31;;;17.18;100.00
50133;BME280;46340;53.148;8.204;2022-08-18T03:11:55;101061.72;;;17.22;100.00
50133;BME280;46340;53.148;8.204;2022-08-18T03:14:22;101068.13;;;17.26;100.00
50133;BME280;46340;53.148;8.204;2022-08-18T03:16:48;101067.28;;;17.19;100.00
50133;BME280;46340;53.148;8.204;2022-08-18T03:19:14;101073.97;;;17.10;100.00
50133;BME280;46340;53.148;8.204;2022-08-18T03:21:40;101073.13;;;17.06;100.00
50133;BME280;46340;53.148;8.204;2022-08-18T03:24:07;101073.47;;;17.01;100.00
50133;BME280;46340;53.148;8.204;2022-08-18T03:26:33;101074.63;;;16.97;100.00
50133;BME280;46340;53.148;8.204;2022-08-18T03:28:59;101079.50;;;17.07;100.00
50133;BME280;46340;53.148;8.204;2022-08-18T03:31:26;101088.22;;;17.02;100.00
50133;BME280;46340;53.148;8.204;2022-08-18T03:33:54;101087.09;;;17.06;100.00
50133;BME280;46340;53.148;8.204;2022-08-18T03:36:21;101090.69;;;17.10;100.00
50133;BME280;46340;53.148;8.204;2022-08-18T03:38:49;101097.09;;;17.15;100.00
50133;BME280;46340;53.148;8.204;2022-08-18T03:41:17;101091.13;;;17.13;100.00
50133;BME280;46340;53.148;8.204;2022-08-18T03:43:44;101100.31;;;17.13;100.00
50133;BME280;46340;53.148;8.204;2022-08-18T03:46:11;101102.31;;;17.16;100.00
50133;BME280;46340;53.148;8.204;2022-08-18T03:48:38;101111.16;;;17.22;100.00
50133;BME280;46340;53.148;8.204;2022-08-18T03:51:24;101106.44;;;17.29;100.00
50133;BME280;46340;53.148;8.204;2022-08-18T03:53:52;101107.22;;;17.30;100.00
50133;BME280;46340;53.148;8.204;2022-08-18T03:56:21;101107.56;;;17.25;100.00
50133;BME280;46340;53.148;8.204;2022-08-18T03:58:50;101112.44;;;17.32;100.00
50133;BME280;46340;53.148;8.204;2022-08-18T04:01:18;101117.91;;;17.21;100.00
50133;BME280;46340;53.148;8.204;2022-08-18T04:03:49;101114.31;;;17.20;100.00
50133;BME280;46340;53.148;8.204;2022-08-18T04:06:17;101111.91;;;17.19;100.00
50133;BME280;46340;53.148;8.204;2022-08-18T04:08:53;101112.72;;;17.19;100.00
50133;BME280;46340;53.148;8.204;2022-08-18T04:11:19;101120.69;;;17.21;100.00
50133;BME280;46340;53.148;8.204;2022-08-18T04:13:44;101119.53;;;17.22;100.00
50133;BME280;46340;53.148;8.204;2022-08-18T04:16:10;101116.78;;;17.25;100.00
50133;BME280;46340;53.148;8.204;2022-08-18T04:18:37;101114.84;;;17.33;100.00
50133;BME280;46340;53.148;8.204;2022-08-18T04:21:03;101118.41;;;17.30;100.00
50133;BME280;46340;53.148;8.204;2022-08-18T04:23:34;101114.00;;;17.29;100.00
50133;BME280;46340;53.148;8.204;2022-08-18T04:26:00;101109.19;;;17.26;100.00
50133;BME280;46340;53.148;8.204;2022-08-18T04:28:26;101107.19;;;17.26;100.00
50133;BME280;46340;53.148;8.204;2022-08-18T04:30:52;101102.44;;;17.27;100.00
50133;BME280;46340;53.148;8.204;2022-08-18T04:33:18;101111.56;;;17.24;100.00
50133;BME280;46340;53.148;8.204;2022-08-18T04:35:44;101115.63;;;17.34;100.00
50133;BME280;46340;53.148;8.204;2022-08-18T04:38:10;101112.06;;;17.33;100.00
50133;BME280;46340;53.148;8.204;2022-08-18T04:40:36;101115.22;;;17.32;100.00
50133;BME280;46340;53.148;8.204;2022-08-18T04:43:02;101122.38;;;17.29;100.00
50133;BME280;46340;53.148;8.204;2022-08-18T04:45:27;101119.16;;;17.23;100.00
50133;BME280;46340;53.148;8.204;2022-08-18T04:47:53;101113.56;;;17.23;100.00
50133;BME280;46340;53.148;8.204;2022-08-18T04:50:18;101110.31;;;17.18;100.00
50133;BME280;46340;53.148;8.204;2022-08-18T04:52:44;101114.31;;;17.20;100.00
50133;BME280;46340;53.148;8.204;2022-08-18T04:55:28;101125.06;;;17.18;100.00
50133;BME280;46340;53.148;8.204;2022-08-18T04:57:54;101133.47;;;17.22;100.00
50133;BME280;46340;53.148;8.204;2022-08-18T05:00:19;101125.53;;;17.24;100.00
50133;BME280;46340;53.148;8.204;2022-08-18T05:02:45;101134.66;;;17.21;100.00
50133;BME280;46340;53.148;8.204;2022-08-18T05:05:10;101124.75;;;17.27;100.00
50133;BME280;46340;53.148;8.204;2022-08-18T05:07:36;101127.56;;;17.27;100.00
50133;BME280;46340;53.148;8.204;2022-08-18T05:10:08;101134.31;;;17.26;100.00
50133;BME280;46340;53.148;8.204;2022-08-18T05:12:36;101131.47;;;17.22;100.00
50133;BME280;46340;53.148;8.204;2022-08-18T05:15:01;101131.56;;;17.29;100.00
50133;BME280;46340;53.148;8.204;2022-08-18T05:17:27;101123.22;;;17.33;100.00
50133;BME280;46340;53.148;8.204;2022-08-18T05:19:52;101127.25;;;17.36;100.00
50133;BME280;46340;53.148;8.204;2022-08-18T05:22:18;101126.81;;;17.34;100.00
50133;BME280;46340;53.148;8.204;2022-08-18T05:24:44;101136.81;;;17.38;100.00
50133;BME280;46340;53.148;8.204;2022-08-18T05:27:10;101139.19;;;17.36;100.00
50133;BME280;46340;53.148;8.204;2022-08-18T05:29:37;101144.47;;;17.45;100.00
50133;BME280;46340;53.148;8.204;2022-08-18T05:32:02;101128.94;;;17.47;100.00
50133;BME280;46340;53.148;8.204;2022-08-18T05:34:31;101134.16;;;17.53;100.00
50133;BME280;46340;53.148;8.204;2022-08-18T05:39:31;101130.28;;;17.64;100.00
50133;BME280;46340;53.148;8.204;2022-08-18T05:42:05;101125.25;;;17.81;100.00
50133;BME280;46340;53.148;8.204;2022-08-18T05:44:46;101119.06;;;18.06;100.00
50133;BME280;46340;53.148;8.204;2022-08-18T05:47:16;101118.41;;;18.27;100.00
50133;BME280;46340;53.148;8.204;2022-08-18T05:49:49;101140.59;;;18.01;100.00
50133;BME280;46340;53.148;8.204;2022-08-18T05:54:54;101135.25;;;17.85;100.00
50133;BME280;46340;53.148;8.204;2022-08-18T05:57:51;101139.31;;;17.88;100.00
50133;BME280;46340;53.148;8.204;2022-08-18T06:00:21;101129.31;;;17.87;100.00
50133;BME280;46340;53.148;8.204;2022-08-18T06:02:55;101126.13;;;17.89;100.00
50133;BME280;46340;53.148;8.204;2022-08-18T06:05:32;101134.38;;;17.74;100.00
50133;BME280;46340;53.148;8.204;2022-08-18T06:08:10;101129.22;;;17.80;100.00
50133;BME280;46340;53.148;8.204;2022-08-18T06:10:38;101134.50;;;17.89;100.00
50133;BME280;46340;53.148;8.204;2022-08-18T06:13:08;101136.53;;;17.92;100.00
50133;BME280;46340;53.148;8.204;2022-08-18T06:18:22;101143.22;;;17.83;100.00
50133;BME280;46340;53.148;8.204;2022-08-18T06:26:33;101153.84;;;18.08;100.00
50133;BME280;46340;53.148;8.204;2022-08-18T06:29:12;101150.97;;;18.04;100.00
50133;BME280;46340;53.148;8.204;2022-08-18T06:34:33;101155.09;;;18.21;100.00
50133;BME280;46340;53.148;8.204;2022-08-18T06:37:19;101150.34;;;18.26;100.00
50133;BME280;46340;53.148;8.204;2022-08-18T06:39:52;101152.38;;;18.32;100.00
50133;BME280;46340;53.148;8.204;2022-08-18T06:42:22;101151.28;;;18.51;100.00
50133;BME280;46340;53.148;8.204;2022-08-18T06:45:02;101150.88;;;18.49;100.00
50133;BME280;46340;53.148;8.204;2022-08-18T06:50:12;101153.41;;;18.69;100.00
50133;BME280;46340;53.148;8.204;2022-08-18T06:53:02;101154.19;;;18.69;100.00
50133;BME280;46340;53.148;8.204;2022-08-18T06:55:30;101156.97;;;18.66;100.00
50133;BME280;46340;53.148;8.204;2022-08-18T06:57:57;101159.91;;;18.91;100.00
50133;BME280;46340;53.148;8.204;2022-08-18T07:00:27;101157.47;;;18.82;100.00
50133;BME280;46340;53.148;8.204;2022-08-18T07:02:59;101159.09;;;18.90;100.00
50133;BME280;46340;53.148;8.204;2022-08-18T07:05:55;101153.16;;;18.99;100.00
50133;BME280;46340;53.148;8.204;2022-08-18T07:10:57;101154.41;;;19.12;100.00
50133;BME280;46340;53.148;8.204;2022-08-18T07:14:11;101156.38;;;19.08;100.00
50133;BME280;46340;53.148;8.204;2022-08-18T07:16:39;101160.72;;;18.91;100.00
50133;BME280;46340;53.148;8.204;2022-08-18T07:19:12;101173.16;;;19.08;100.00
50133;BME280;46340;53.148;8.204;2022-08-18T07:21:40;101184.34;;;19.12;100.00
50133;BME280;46340;53.148;8.204;2022-08-18T07:24:08;101183.19;;;19.16;100.00
50133;BME280;46340;53.148;8.204;2022-08-18T07:29:24;101192.38;;;19.13;100.00
50133;BME280;46340;53.148;8.204;2022-08-18T07:31:50;101197.09;;;18.91;100.00
50133;BME280;46340;53.148;8.204;2022-08-18T07:34:20;101188.34;;;19.04;100.00
50133;BME280;46340;53.148;8.204;2022-08-18T07:36:52;101187.63;;;19.28;100.00
50133;BME280;46340;53.148;8.204;2022-08-18T07:39:37;101194.09;;;19.47;100.00
50133;BME280;46340;53.148;8.204;2022-08-18T07:42:09;101193.72;;;19.73;100.00
50133;BME280;46340;53.148;8.204;2022-08-18T07:47:28;101194.16;;;20.12;100.00
50133;BME280;46340;53.148;8.204;2022-08-18T07:50:02;101198.56;;;20.27;100.00
50133;BME280;46340;53.148;8.204;2022-08-18T07:52:31;101200.16;;;20.21;100.00
50133;BME280;46340;53.148;8.204;2022-08-18T07:55:28;101197.72;;;20.52;100.00
50133;BME280;46340;53.148;8.204;2022-08-18T08:00:23;101204.91;;;20.60;100.00
50133;BME280;46340;53.148;8.204;2022-08-18T08:16:56;101193.66;;;20.81;100.00
50133;BME280;46340;53.148;8.204;2022-08-18T08:19:51;101198.91;;;20.72;100.00
50133;BME280;46340;53.148;8.204;2022-08-18T08:22:39;101209.69;;;20.84;100.00
50133;BME280;46340;53.148;8.204;2022-08-18T08:25:24;101205.25;;;20.91;100.00
50133;BME280;46340;53.148;8.204;2022-08-18T08:30:27;101199.56;;;21.05;100.00
50133;BME280;46340;53.148;8.204;2022-08-18T08:33:18;101198.44;;;20.88;100.00
50133;BME280;46340;53.148;8.204;2022-08-18T08:35:56;101195.59;;;21.02;100.00
50133;BME280;46340;53.148;8.204;2022-08-18T08:41:23;101199.25;;;21.70;100.00
50133;BME280;46340;53.148;8.204;2022-08-18T08:44:10;101205.56;;;21.85;100.00
50133;BME280;46340;53.148;8.204;2022-08-18T08:46:46;101196.91;;;21.57;100.00
50133;BME280;46340;53.148;8.204;2022-08-18T08:49:46;101192.72;;;21.87;100.00
50133;BME280;46340;53.148;8.204;2022-08-18T08:52:21;101196.88;;;22.17;100.00
50133;BME280;46340;53.148;8.204;2022-08-18T08:54:57;101203.06;;;21.94;100.00
50133;BME280;46340;53.148;8.204;2022-08-18T08:57:30;101199.16;;;22.33;100.00
50133;BME280;46340;53.148;8.204;2022-08-18T09:00:04;101196.19;;;22.47;100.00
50133;BME280;46340;53.148;8.204;2022-08-18T09:02:44;101200.31;;;22.39;100.00
50133;BME280;46340;53.148;8.204;2022-08-18T09:05:47;101200.66;;;22.45;100.00
50133;BME280;46340;53.148;8.204;2022-08-18T09:08:40;101209.34;;;22.12;100.00
50133;BME280;46340;53.148;8.204;2022-08-18T09:23:12;101196.94;;;22.10;100.00
50133;BME280;46340;53.148;8.204;2022-08-18T09:25:47;101206.25;;;22.48;100.00
50133;BME280;46340;53.148;8.204;2022-08-18T09:33:16;101188.25;;;22.77;100.00
50133;BME280;46340;53.148;8.204;2022-08-18T09:38:18;101197.56;;;22.32;100.00
50133;BME280;46340;53.148;8.204;2022-08-18T09:41:11;101206.63;;;21.49;100.00
50133;BME280;46340;53.148;8.204;2022-08-18T09:44:08;101212.81;;;21.08;100.00
50133;BME280;46340;53.148;8.204;2022-08-18T09:57:31;101213.31;;;21.66;100.00
50133;BME280;46340;53.148;8.204;2022-08-18T10:07:50;101198.75;;;23.65;100.00
50133;BME280;46340;53.148;8.204;2022-08-18T10:19:09;101218.16;;;22.63;100.00
50133;BME280;46340;53.148;8.204;2022-08-18T10:24:20;101218.00;;;22.78;100.00
50133;BME280;46340;53.148;8.204;2022-08-18T10:45:34;101221.50;;;22.85;100.00
50133;BME280;46340;53.148;8.204;2022-08-18T10:53:44;101224.56;;;23.36;100.00
50133;BME280;46340;53.148;8.204;2022-08-18T11:02:05;101225.94;;;23.52;100.00
50133;BME280;46340;53.148;8.204;2022-08-18T11:04:47;101221.69;;;23.67;100.00
50133;BME280;46340;53.148;8.204;2022-08-18T11:07:25;101222.25;;;23.55;100.00
50133;BME280;46340;53.148;8.204;2022-08-18T11:09:54;101225.66;;;23.42;100.00
50133;BME280;46340;53.148;8.204;2022-08-18T11:12:38;101229.66;;;23.72;100.00
50133;BME280;46340;53.148;8.204;2022-08-18T11:15:22;101232.09;;;23.70;100.00
50133;BME280;46340;53.148;8.204;2022-08-18T11:18:18;101237.38;;;23.68;100.00
50133;BME280;46340;53.148;8.204;2022-08-18T11:21:24;101240.81;;;23.52;100.00
50133;BME280;46340;53.148;8.204;2022-08-18T11:26:29;101241.44;;;23.67;100.00
50133;BME280;46340;53.148;8.204;2022-08-18T11:28:55;101250.44;;;24.36;100.00
50133;BME280;46340;53.148;8.204;2022-08-18T11:31:21;101245.97;;;25.03;100.00
50133;BME280;46340;53.148;8.204;2022-08-18T11:33:47;101238.94;;;25.51;100.00
50133;BME280;46340;53.148;8.204;2022-08-18T11:36:12;101246.06;;;24.32;100.00
50133;BME280;46340;53.148;8.204;2022-08-18T11:38:40;101243.00;;;23.68;100.00
50133;BME280;46340;53.148;8.204;2022-08-18T11:41:19;101238.38;;;23.85;100.00
50133;BME280;46340;53.148;8.204;2022-08-18T11:43:54;101240.09;;;23.75;100.00
50133;BME280;46340;53.148;8.204;2022-08-18T11:46:29;101238.13;;;23.45;100.00
50133;BME280;46340;53.148;8.204;2022-08-18T11:49:00;101247.97;;;23.88;100.00
50133;BME280;46340;53.148;8.204;2022-08-18T11:51:51;101240.78;;;24.34;100.00
50133;BME280;46340;53.148;8.204;2022-08-18T11:54:20;101242.97;;;23.99;100.00
50133;BME280;46340;53.148;8.204;2022-08-18T11:56:47;101243.28;;;23.19;100.00
50133;BME280;46340;53.148;8.204;2022-08-18T12:12:17;101238.19;;;24.67;100.00
50133;BME280;46340;53.148;8.204;2022-08-18T12:17:21;101236.69;;;25.79;100.00
50133;BME280;46340;53.148;8.204;2022-08-18T12:19:47;101230.75;;;25.73;100.00
50133;BME280;46340;53.148;8.204;2022-08-18T12:22:22;101236.25;;;25.04;100.00
50133;BME280;46340;53.148;8.204;2022-08-18T12:24:50;101237.13;;;25.77;100.00
50133;BME280;46340;53.148;8.204;2022-08-18T12:27:17;101231.56;;;25.17;100.00
50133;BME280;46340;53.148;8.204;2022-08-18T12:29:45;101233.56;;;24.56;100.00
50133;BME280;46340;53.148;8.204;2022-08-18T12:32:10;101227.41;;;24.62;100.00
50133;BME280;46340;53.148;8.204;2022-08-18T12:34:36;101223.59;;;24.48;100.00
50133;BME280;46340;53.148;8.204;2022-08-18T12:37:02;101225.81;;;24.13;100.00
50133;BME280;46340;53.148;8.204;2022-08-18T12:39:29;101212.38;;;23.97;100.00
50133;BME280;46340;53.148;8.204;2022-08-18T12:41:55;101208.63;;;24.51;100.00
50133;BME280;46340;53.148;8.204;2022-08-18T12:44:21;101200.97;;;26.18;100.00
50133;BME280;46340;53.148;8.204;2022-08-18T12:46:46;101204.59;;;27.35;100.00
50133;BME280;46340;53.148;8.204;2022-08-18T12:49:17;101211.75;;;25.90;100.00
50133;BME280;46340;53.148;8.204;2022-08-18T12:51:45;101210.16;;;25.73;100.00
50133;BME280;46340;53.148;8.204;2022-08-18T12:54:29;101218.56;;;24.36;100.00
50133;BME280;46340;53.148;8.204;2022-08-18T12:56:56;101225.34;;;24.66;100.00
50133;BME280;46340;53.148;8.204;2022-08-18T12:59:22;101224.03;;;24.47;100.00
50133;BME280;46340;53.148;8.204;2022-08-18T13:01:48;101225.81;;;24.37;100.00
50133;BME280;46340;53.148;8.204;2022-08-18T13:04:14;101228.31;;;24.78;100.00
50133;BME280;46340;53.148;8.204;2022-08-18T13:06:44;101231.56;;;25.17;100.00
50133;BME280;46340;53.148;8.204;2022-08-18T13:09:11;101228.88;;;25.10;100.00
50133;BME280;46340;53.148;8.204;2022-08-18T13:11:37;101237.16;;;24.33;100.00
50133;BME280;46340;53.148;8.204;2022-08-18T13:14:02;101245.81;;;23.41;100.00
50133;BME280;46340;53.148;8.204;2022-08-18T13:16:27;101248.53;;;23.17;100.00
50133;BME280;46340;53.148;8.204;2022-08-18T13:18:58;101239.34;;;23.09;100.00
50133;BME280;46340;53.148;8.204;2022-08-18T13:21:23;101226.91;;;23.41;100.00
50133;BME280;46340;53.148;8.204;2022-08-18T13:23:49;101233.09;;;23.29;100.00
50133;BME280;46340;53.148;8.204;2022-08-18T13:26:36;101222.56;;;23.33;100.00
50133;BME280;46340;53.148;8.204;2022-08-18T13:29:02;101217.06;;;22.88;100.00
50133;BME280;46340;53.148;8.204;2022-08-18T13:31:28;101225.44;;;22.95;100.00
50133;BME280;46340;53.148;8.204;2022-08-18T13:33:53;101211.81;;;23.24;100.00
50133;BME280;46340;53.148;8.204;2022-08-18T13:36:23;101213.88;;;23.20;100.00
50133;BME280;46340;53.148;8.204;2022-08-18T13:38:51;101217.50;;;23.21;100.00
50133;BME280;46340;53.148;8.204;2022-08-18T13:41:18;101216.88;;;23.06;100.00
50133;BME280;46340;53.148;8.204;2022-08-18T13:43:45;101224.59;;;23.60;100.00
50133;BME280;46340;53.148;8.204;2022-08-18T13:46:12;101228.25;;;23.88;100.00
50133;BME280;46340;53.148;8.204;2022-08-18T13:48:39;101235.75;;;24.21;100.00
50133;BME280;46340;53.148;8.204;2022-08-18T13:51:06;101238.19;;;24.43;100.00
50133;BME280;46340;53.148;8.204;2022-08-18T13:53:34;101234.88;;;24.01;100.00
50133;BME280;46340;53.148;8.204;2022-08-18T13:56:03;101230.78;;;24.53;100.00
50133;BME280;46340;53.148;8.204;2022-08-18T13:58:29;101220.00;;;26.79;100.00
50133;BME280;46340;53.148;8.204;2022-08-18T14:00:56;101218.91;;;27.83;100.00
50133;BME280;46340;53.148;8.204;2022-08-18T14:03:23;101224.25;;;27.55;100.00
50133;BME280;46340;53.148;8.204;2022-08-18T14:05:49;101218.56;;;28.55;100.00
50133;BME280;46340;53.148;8.204;2022-08-18T14:08:15;101226.72;;;30.22;100.00
50133;BME280;46340;53.148;8.204;2022-08-18T14:10:47;101221.53;;;30.76;100.00
50133;BME280;46340;53.148;8.204;2022-08-18T14:13:17;101233.97;;;30.14;100.00
50133;BME280;46340;53.148;8.204;2022-08-18T14:15:43;101228.66;;;30.81;100.00
50133;BME280;46340;53.148;8.204;2022-08-18T14:18:09;101241.41;;;31.83;100.00
50133;BME280;46340;53.148;8.204;2022-08-18T14:20:35;101238.88;;;33.27;90.61
50133;BME280;46340;53.148;8.204;2022-08-18T14:23:19;101249.25;;;33.24;88.29
50133;BME280;46340;53.148;8.204;2022-08-18T14:26:03;101261.03;;;31.39;97.59
50133;BME280;46340;53.148;8.204;2022-08-18T14:28:46;101254.19;;;28.91;100.00
50133;BME280;46340;53.148;8.204;2022-08-18T14:31:12;101264.72;;;26.55;100.00
50133;BME280;46340;53.148;8.204;2022-08-18T14:33:38;101268.81;;;25.32;100.00
50133;BME280;46340;53.148;8.204;2022-08-18T14:36:04;101259.19;;;24.42;100.00
50133;BME280;46340;53.148;8.204;2022-08-18T14:38:30;101262.22;;;24.99;100.00
50133;BME280;46340;53.148;8.204;2022-08-18T14:40:56;101251.81;;;25.52;100.00
50133;BME280;46340;53.148;8.204;2022-08-18T14:43:24;101242.09;;;26.22;100.00
50133;BME280;46340;53.148;8.204;2022-08-18T14:45:49;101240.25;;;27.07;100.00
50133;BME280;46340;53.148;8.204;2022-08-18T14:48:16;101249.78;;;27.81;100.00
50133;BME280;46340;53.148;8.204;2022-08-18T14:50:45;101253.38;;;26.72;100.00
50133;BME280;46340;53.148;8.204;2022-08-18T14:53:16;101253.13;;;25.84;100.00
50133;BME280;46340;53.148;8.204;2022-08-18T14:55:44;101247.19;;;25.02;100.00
50133;BME280;46340;53.148;8.204;2022-08-18T14:58:10;101253.34;;;26.10;100.00
50133;BME280;46340;53.148;8.204;2022-08-18T15:00:36;101262.69;;;26.39;100.00
50133;BME280;46340;53.148;8.204;2022-08-18T15:03:02;101253.78;;;27.97;100.00
50133;BME280;46340;53.148;8.204;2022-08-18T15:05:30;101245.81;;;30.12;100.00
50133;BME280;46340;53.148;8.204;2022-08-18T15:07:57;101247.50;;;31.06;100.00
50133;BME280;46340;53.148;8.204;2022-08-18T15:10:23;101255.19;;;31.33;99.03
50133;BME280;46340;53.148;8.204;2022-08-18T15:12:48;101249.06;;;29.52;100.00
50133;BME280;46340;53.148;8.204;2022-08-18T15:15:14;101255.00;;;28.69;100.00
50133;BME280;46340;53.148;8.204;2022-08-18T15:17:40;101253.16;;;28.27;100.00
50133;BME280;46340;53.148;8.204;2022-08-18T15:20:06;101256.25;;;26.85;100.00
50133;BME280;46340;53.148;8.204;2022-08-18T15:22:40;101252.56;;;27.30;100.00
50133;BME280;46340;53.148;8.204;2022-08-18T15:25:25;101250.41;;;27.34;100.00